Dayton, Washington
Current Conditions -  °F | °C
As of 11:53 PM on Friday 19 Dec 2014 (Local Time) from KALW Reporting Station
Clear Clear  
Wind Chill: 40°   Ceiling: Unl
Heat Index: 45°   Visibility: 10mi
Dew Point: 34°   Wind: 10mph
Humidity: 65%   Direction: 90°E
Pressure: 29.95"   Gusts: NA
Location:  46.32°N, 117.97°W
Report Text: KALW 200753Z AUTO 09009KT 10SM CLR 07/01 A2995 RMK AO2 SLP147 T00720011 401280028
Loading
Personal Weather Stations






























Interactive Weather Map New forecast layout! Learn more

10-Day Weather Forecast

Advertisements
Track Severe Weather on mobile